TimeCDT,TemperatureF,Dew PointF,Humidity,Sea Level PressureIn,VisibilityMPH,Wind Direction,Wind SpeedMPH,Gust SpeedMPH,PrecipitationIn,Events,Conditions,WindDirDegrees,DateUTC
12:54 AM,60.1,39.9,47,30.00,10.0,NE,5.8,-,N/A,,Clear,50,2013-05-07 05:54:00
1:54 AM,55.9,41.0,57,30.01,10.0,East,3.5,-,N/A,,Clear,80,2013-05-07 06:54:00
2:54 AM,55.0,41.0,59,30.00,10.0,ENE,6.9,-,N/A,,Mostly Cloudy,60,2013-05-07 07:54:00
3:54 AM,54.0,39.9,59,30.00,10.0,NE,4.6,-,N/A,,Clear,50,2013-05-07 08:54:00
4:54 AM,51.8,39.2,62,30.01,10.0,ENE,3.5,-,N/A,,Clear,60,2013-05-07 09:54:00
5:54 AM,50.0,43.0,77,30.02,10.0,Calm,Calm,-,N/A,,Clear,0,2013-05-07 10:54:00
6:54 AM,54.0,44.1,69,30.04,10.0,ENE,4.6,-,N/A,,Clear,70,2013-05-07 11:54:00
7:54 AM,61.0,45.0,56,30.04,10.0,ENE,4.6,-,N/A,,Clear,70,2013-05-07 12:54:00
8:54 AM,64.9,45.0,48,30.05,10.0,East,5.8,-,N/A,,Clear,80,2013-05-07 13:54:00
9:54 AM,70.0,39.9,33,30.04,10.0,NNE,5.8,-,N/A,,Clear,30,2013-05-07 14:54:00
10:54 AM,72.0,33.1,24,30.04,10.0,NNE,8.1,-,N/A,,Clear,30,2013-05-07 15:54:00
11:54 AM,73.9,34.0,23,30.03,10.0,North,9.2,-,N/A,,Clear,350,2013-05-07 16:54:00
12:54 PM,75.9,35.1,23,30.01,10.0,NNE,4.6,-,N/A,,Clear,20,2013-05-07 17:54:00
1:54 PM,77.0,34.0,21,30.00,10.0,North,-9999.0,-,N/A,,Clear,0,2013-05-07 18:54:00
2:54 PM,78.1,34.0,20,29.99,10.0,Calm,Calm,-,N/A,,Clear,0,2013-05-07 19:54:00
3:54 PM,77.0,39.0,25,29.98,10.0,SW,5.8,-,N/A,,Clear,230,2013-05-07 20:54:00
4:54 PM,79.0,37.9,23,29.97,10.0,Variable,5.8,-,N/A,,Clear,0,2013-05-07 21:54:00
5:54 PM,79.0,39.9,25,29.97,10.0,Variable,3.5,-,N/A,,Clear,0,2013-05-07 22:54:00
6:54 PM,77.0,37.9,24,29.96,10.0,NW,3.5,-,N/A,,Clear,310,2013-05-07 23:54:00
7:54 PM,73.0,37.0,27,29.97,10.0,Calm,Calm,-,N/A,,Clear,0,2013-05-08 00:54:00
8:54 PM,64.9,43.0,45,29.98,10.0,Calm,Calm,-,N/A,,Clear,0,2013-05-08 01:54:00
9:54 PM,61.0,46.0,58,29.99,10.0,Calm,Calm,-,N/A,,Clear,0,2013-05-08 02:54:00
10:54 PM,59.0,45.0,60,29.99,10.0,NW,3.5,-,N/A,,Clear,310,2013-05-08 03:54:00
11:54 PM,59.0,46.9,64,29.99,10.0,NNW,5.8,-,N/A,,Clear,340,2013-05-08 04:54:00